createdAt,value
2023-04-20T00:00:10.825Z,0.00
2023-04-20T00:01:10.851Z,0.00
2023-04-20T00:02:10.836Z,0.00
2023-04-20T00:03:10.911Z,0.00
2023-04-20T00:04:10.900Z,0.00
2023-04-20T00:05:10.846Z,0.00
2023-04-20T00:06:10.770Z,0.00
2023-04-20T00:07:10.764Z,0.00
2023-04-20T00:08:10.741Z,0.00
2023-04-20T00:09:10.732Z,0.00
2023-04-20T00:10:10.722Z,0.00
2023-04-20T00:11:10.729Z,0.00
2023-04-20T00:12:10.692Z,0.00
2023-04-20T00:13:10.701Z,0.00
2023-04-20T00:14:10.688Z,0.00
2023-04-20T00:15:10.658Z,0.00
2023-04-20T00:16:10.673Z,0.00
2023-04-20T00:17:10.830Z,0.00
2023-04-20T00:18:10.643Z,0.00
2023-04-20T00:19:10.620Z,0.00
2023-04-20T00:20:10.630Z,0.00
2023-04-20T00:21:10.621Z,0.00
2023-04-20T00:22:10.601Z,0.00
2023-04-20T00:23:10.583Z,0.00
2023-04-20T00:24:10.576Z,0.00
2023-04-20T00:25:10.554Z,0.00
2023-04-20T00:26:10.575Z,0.00
2023-04-20T00:27:10.537Z,0.00
2023-04-20T00:28:10.528Z,0.00
2023-04-20T00:29:10.516Z,0.00
2023-04-20T00:30:10.535Z,0.00
2023-04-20T00:31:10.542Z,0.00
2023-04-20T00:32:10.491Z,0.00
2023-04-20T00:33:10.471Z,0.00
2023-04-20T00:34:10.475Z,0.00
2023-04-20T00:35:10.466Z,0.00
2023-04-20T00:36:10.472Z,0.00
2023-04-20T00:37:10.478Z,0.00
2023-04-20T00:38:10.425Z,0.00
2023-04-20T00:39:10.414Z,0.00
2023-04-20T00:40:10.400Z,0.00
2023-04-20T00:41:10.428Z,0.00
2023-04-20T00:42:10.396Z,0.00
2023-04-20T00:43:10.374Z,0.00
2023-04-20T00:44:10.379Z,0.00
2023-04-20T00:45:10.360Z,0.00
2023-04-20T00:46:10.438Z,0.00
2023-04-20T00:47:10.323Z,0.00
2023-04-20T00:48:10.507Z,0.00
2023-04-20T00:49:10.309Z,0.00
2023-04-20T00:50:10.313Z,0.00
2023-04-20T00:51:10.293Z,0.00
2023-04-20T00:52:10.287Z,0.00
2023-04-20T00:53:10.264Z,0.00
2023-04-20T00:54:10.256Z,0.00
2023-04-20T00:55:10.245Z,0.00
2023-04-20T00:56:10.305Z,0.00
2023-04-20T00:57:10.214Z,0.00
2023-04-20T00:58:10.215Z,0.00
2023-04-20T00:59:10.201Z,0.00
2023-04-20T01:00:10.189Z,0.00
2023-04-20T01:01:10.210Z,0.00
2023-04-20T01:02:10.350Z,0.00
2023-04-20T01:03:10.298Z,0.00
2023-04-20T01:04:10.196Z,0.00
2023-04-20T01:05:10.134Z,0.00
2023-04-20T01:06:10.161Z,0.00
2023-04-20T01:07:10.113Z,0.00
2023-04-20T01:08:10.120Z,0.00
2023-04-20T01:09:10.102Z,0.00
2023-04-20T01:10:10.098Z,0.00
2023-04-20T01:11:10.102Z,0.00
2023-04-20T01:12:10.065Z,0.00
2023-04-20T01:13:10.048Z,0.00
2023-04-20T01:14:10.044Z,0.00
2023-04-20T01:15:10.029Z,0.00
2023-04-20T01:16:10.129Z,0.00
2023-04-20T01:17:10.015Z,0.00
2023-04-20T01:18:10.006Z,0.00
2023-04-20T01:19:09.992Z,0.00
2023-04-20T01:20:09.981Z,0.00
2023-04-20T01:21:09.986Z,0.00
2023-04-20T01:22:09.958Z,0.00
2023-04-20T01:23:09.957Z,0.00
2023-04-20T01:24:09.938Z,0.00
2023-04-20T01:25:09.929Z,0.00
2023-04-20T01:26:09.936Z,0.00
2023-04-20T01:27:09.908Z,0.00
2023-04-20T01:28:09.899Z,0.00
2023-04-20T01:29:09.886Z,0.00
2023-04-20T01:30:09.901Z,0.00
2023-04-20T01:31:09.919Z,0.00
2023-04-20T01:32:09.858Z,0.00
2023-04-20T01:33:09.902Z,0.00
2023-04-20T01:34:09.837Z,0.00
2023-04-20T01:35:09.821Z,0.00
2023-04-20T01:36:09.825Z,0.00
2023-04-20T01:37:09.853Z,0.00
2023-04-20T01:38:09.795Z,0.00
2023-04-20T01:39:09.811Z,0.00
2023-04-20T01:40:09.804Z,0.00
2023-04-20T01:41:09.772Z,0.00
2023-04-20T01:42:09.748Z,0.00
2023-04-20T01:43:09.741Z,0.00
2023-04-20T01:44:09.799Z,0.00
2023-04-20T01:45:09.724Z,0.00
2023-04-20T01:46:09.748Z,0.00
2023-04-20T01:47:09.742Z,0.00
2023-04-20T01:48:09.696Z,0.00
2023-04-20T01:49:09.673Z,0.00
2023-04-20T01:50:09.673Z,0.00
2023-04-20T01:51:09.691Z,0.00
2023-04-20T01:52:09.657Z,0.00
2023-04-20T01:53:09.638Z,0.00
2023-04-20T01:54:09.658Z,0.00
2023-04-20T01:55:09.616Z,0.00
2023-04-20T01:56:09.640Z,0.00
2023-04-20T01:57:09.607Z,0.00
2023-04-20T01:58:09.589Z,0.00
2023-04-20T01:59:09.593Z,0.00
2023-04-20T02:00:09.605Z,0.00
2023-04-20T02:01:09.631Z,0.00
2023-04-20T02:02:09.625Z,0.00
2023-04-20T02:03:09.641Z,0.00
2023-04-20T02:04:09.571Z,0.00
2023-04-20T02:05:09.530Z,0.00
2023-04-20T02:06:09.513Z,0.00
2023-04-20T02:07:09.512Z,0.00
2023-04-20T02:08:09.495Z,0.00
2023-04-20T02:09:09.502Z,0.00
2023-04-20T02:10:09.461Z,0.00
2023-04-20T02:11:09.465Z,0.00
2023-04-20T02:12:09.452Z,0.00
2023-04-20T02:13:09.427Z,0.00
2023-04-20T02:14:09.419Z,0.00
2023-04-20T02:15:09.402Z,0.00
2023-04-20T02:16:09.434Z,0.00
2023-04-20T02:17:09.423Z,0.00
2023-04-20T02:18:09.422Z,0.00
2023-04-20T02:19:09.359Z,0.00
2023-04-20T02:20:09.399Z,0.00
2023-04-20T02:21:09.352Z,0.00
2023-04-20T02:22:09.336Z,0.00
2023-04-20T02:23:09.317Z,0.00
2023-04-20T02:24:09.313Z,0.00
2023-04-20T02:25:09.293Z,0.00
2023-04-20T02:26:09.322Z,0.00
2023-04-20T02:27:09.274Z,0.00
2023-04-20T02:28:09.273Z,0.00
2023-04-20T02:29:09.262Z,0.00
2023-04-20T02:30:09.257Z,0.00
2023-04-20T02:31:09.268Z,0.00
2023-04-20T02:32:09.234Z,0.00
2023-04-20T02:33:09.206Z,0.00
2023-04-20T02:34:09.212Z,0.00
2023-04-20T02:35:09.193Z,0.00
2023-04-20T02:36:09.190Z,0.00
2023-04-20T02:37:09.168Z,0.00
2023-04-20T02:38:09.167Z,0.00
2023-04-20T02:39:09.147Z,0.00
2023-04-20T02:40:09.146Z,0.00
2023-04-20T02:41:09.137Z,0.00
2023-04-20T02:42:09.115Z,0.00
2023-04-20T02:43:09.114Z,0.00
2023-04-20T02:44:09.096Z,0.00
2023-04-20T02:45:09.110Z,0.00
2023-04-20T02:46:09.153Z,0.00
2023-04-20T02:47:09.059Z,0.00
2023-04-20T02:48:09.072Z,0.00
2023-04-20T02:49:09.044Z,0.00
2023-04-20T02:50:09.069Z,0.00
2023-04-20T02:51:09.019Z,0.00
2023-04-20T02:52:09.015Z,0.00
2023-04-20T02:53:09.010Z,0.00
2023-04-20T02:54:09.017Z,0.00
2023-04-20T02:55:08.996Z,0.00
2023-04-20T02:56:08.973Z,0.00
2023-04-20T02:57:08.970Z,0.00
2023-04-20T02:58:08.957Z,0.00
2023-04-20T02:59:08.941Z,0.00
2023-04-20T03:00:14.973Z,0.00
2023-04-20T03:01:08.920Z,0.00
2023-04-20T03:02:08.964Z,0.00
2023-04-20T03:03:09.077Z,0.00
2023-04-20T03:04:08.988Z,0.00
2023-04-20T03:05:08.905Z,0.00
2023-04-20T03:06:08.870Z,0.00
2023-04-20T03:07:08.886Z,0.00
2023-04-20T03:08:08.902Z,0.00
2023-04-20T03:09:08.838Z,0.00
2023-04-20T03:10:08.861Z,0.00
2023-04-20T03:11:08.817Z,0.00
2023-04-20T03:12:08.815Z,0.00
2023-04-20T03:13:08.836Z,0.00
2023-04-20T03:14:08.784Z,0.00
2023-04-20T03:15:08.803Z,0.00
2023-04-20T03:16:08.823Z,0.00
2023-04-20T03:17:08.756Z,0.00
2023-04-20T03:18:08.748Z,0.00
2023-04-20T03:19:08.769Z,0.00
2023-04-20T03:20:08.745Z,0.00
2023-04-20T03:21:08.709Z,0.00
2023-04-20T03:22:08.717Z,0.00
2023-04-20T03:23:08.704Z,0.00
2023-04-20T03:24:08.686Z,0.00
2023-04-20T03:25:08.707Z,0.00
2023-04-20T03:26:08.657Z,0.00
2023-04-20T03:27:08.653Z,0.00
2023-04-20T03:28:08.647Z,0.00
2023-04-20T03:29:08.630Z,0.00
2023-04-20T03:30:08.668Z,0.00
2023-04-20T03:31:08.630Z,0.00
2023-04-20T03:32:08.659Z,0.00
2023-04-20T03:33:08.624Z,0.00
2023-04-20T03:34:08.590Z,0.00
2023-04-20T03:35:08.581Z,0.00
2023-04-20T03:36:08.564Z,0.00
2023-04-20T03:37:08.544Z,0.00
2023-04-20T03:38:08.554Z,0.00
2023-04-20T03:39:08.540Z,0.00
2023-04-20T03:40:08.485Z,0.00
2023-04-20T03:41:08.440Z,0.00
2023-04-20T03:42:08.444Z,0.00
2023-04-20T03:43:08.455Z,0.00
2023-04-20T03:44:08.413Z,0.00
2023-04-20T03:45:08.440Z,0.00
2023-04-20T03:46:08.460Z,0.00
2023-04-20T03:47:08.385Z,0.00
2023-04-20T03:48:08.393Z,0.00
2023-04-20T03:49:08.359Z,0.00
2023-04-20T03:50:08.363Z,0.00
2023-04-20T03:51:08.339Z,0.00
2023-04-20T03:52:08.328Z,0.00
2023-04-20T03:53:08.321Z,0.00
2023-04-20T03:54:08.322Z,0.00
2023-04-20T03:55:08.351Z,0.00
2023-04-20T03:56:08.311Z,0.00
2023-04-20T03:57:08.277Z,0.00
2023-04-20T03:58:08.299Z,0.00
2023-04-20T03:59:08.279Z,0.00
2023-04-20T04:00:08.257Z,0.00
2023-04-20T04:01:08.247Z,0.00
2023-04-20T04:02:08.322Z,0.00
2023-04-20T04:03:08.483Z,0.00
2023-04-20T04:04:08.559Z,0.00
2023-04-20T04:05:08.242Z,0.00
2023-04-20T04:06:08.185Z,0.00
2023-04-20T04:07:08.184Z,0.00
2023-04-20T04:08:08.163Z,0.00
2023-04-20T04:09:08.312Z,0.00
2023-04-20T04:10:08.149Z,0.00
2023-04-20T04:11:08.150Z,0.00
2023-04-20T04:12:08.152Z,0.00
2023-04-20T04:13:08.111Z,0.00
2023-04-20T04:14:08.211Z,0.00
2023-04-20T04:15:08.126Z,0.00
2023-04-20T04:16:08.089Z,0.00
2023-04-20T04:17:08.279Z,0.00
2023-04-20T04:18:08.104Z,0.00
2023-04-20T04:19:08.109Z,0.00
2023-04-20T04:20:08.047Z,0.00
2023-04-20T04:21:08.048Z,0.00
2023-04-20T04:22:08.016Z,0.00
2023-04-20T04:23:08.011Z,0.00
2023-04-20T04:24:08.009Z,0.00
2023-04-20T04:25:08.010Z,0.00
2023-04-20T04:26:07.970Z,0.00
2023-04-20T04:27:07.979Z,0.00
2023-04-20T04:28:07.963Z,0.00
2023-04-20T04:29:08.008Z,0.00
2023-04-20T04:30:07.982Z,0.00
2023-04-20T04:31:08.238Z,0.00
2023-04-20T04:32:08.052Z,0.00
2023-04-20T04:33:07.960Z,0.00
2023-04-20T04:34:08.036Z,0.00
2023-04-20T04:35:07.885Z,0.00
2023-04-20T04:36:07.947Z,0.00
2023-04-20T04:37:07.878Z,0.00
2023-04-20T04:38:07.895Z,0.00
2023-04-20T04:39:07.962Z,0.00
2023-04-20T04:40:07.902Z,0.00
2023-04-20T04:41:07.876Z,0.00
2023-04-20T04:42:08.138Z,0.00
2023-04-20T04:43:07.821Z,0.00
2023-04-20T04:44:07.815Z,0.00
2023-04-20T04:45:07.806Z,0.00
2023-04-20T04:46:07.798Z,0.00
2023-04-20T04:47:07.785Z,0.00
2023-04-20T04:48:09.044Z,0.00
2023-04-20T04:49:07.750Z,0.00
2023-04-20T04:50:07.788Z,0.00
2023-04-20T04:51:07.733Z,0.00
2023-04-20T04:52:07.759Z,0.00
2023-04-20T04:53:07.877Z,0.00
2023-04-20T04:54:07.689Z,0.00
2023-04-20T04:55:07.692Z,0.00
2023-04-20T04:56:07.710Z,0.00
2023-04-20T04:57:07.685Z,0.00
2023-04-20T04:58:07.722Z,5.62
2023-04-20T04:59:07.687Z,5.62
2023-04-20T05:00:07.633Z,5.62
2023-04-20T05:01:07.648Z,5.62
2023-04-20T05:02:07.787Z,5.62
2023-04-20T05:03:07.878Z,5.62
2023-04-20T05:04:07.709Z,11.25
2023-04-20T05:05:08.998Z,5.62
2023-04-20T05:06:07.590Z,5.62
2023-04-20T05:07:07.564Z,5.62
2023-04-20T05:08:07.571Z,5.62
2023-04-20T05:09:07.534Z,5.62
2023-04-20T05:10:07.535Z,11.25
2023-04-20T05:11:07.623Z,11.25
2023-04-20T05:12:07.522Z,16.88
2023-04-20T05:13:07.507Z,16.88
2023-04-20T05:14:07.481Z,16.88
2023-04-20T05:15:07.530Z,11.25
2023-04-20T05:16:07.481Z,11.25
2023-04-20T05:17:07.575Z,5.62
2023-04-20T05:18:07.587Z,5.62
2023-04-20T05:19:07.447Z,5.62
2023-04-20T05:20:07.430Z,5.62
2023-04-20T05:21:07.431Z,11.25
2023-04-20T05:22:07.472Z,11.25
2023-04-20T05:23:07.498Z,11.25
2023-04-20T05:24:07.404Z,5.62
2023-04-20T05:25:07.369Z,5.62
2023-04-20T05:26:07.359Z,5.62
2023-04-20T05:27:07.361Z,5.62
2023-04-20T05:28:07.380Z,11.25
2023-04-20T05:29:07.335Z,11.25
2023-04-20T05:30:19.545Z,11.25
2023-04-20T05:31:07.301Z,11.25
2023-04-20T05:32:07.344Z,11.25
2023-04-20T05:33:07.333Z,11.25
2023-04-20T05:34:07.276Z,11.25
2023-04-20T05:35:07.257Z,11.25
2023-04-20T05:36:07.249Z,16.88
2023-04-20T05:37:07.246Z,22.50
2023-04-20T05:38:07.272Z,22.50
2023-04-20T05:39:07.254Z,22.50
2023-04-20T05:40:07.225Z,16.88
2023-04-20T05:41:07.244Z,16.88
2023-04-20T05:42:07.223Z,16.88
2023-04-20T05:43:07.245Z,22.50
2023-04-20T05:44:07.181Z,16.88
2023-04-20T05:45:07.196Z,16.88
2023-04-20T05:46:07.177Z,22.50
2023-04-20T05:47:07.141Z,28.12
2023-04-20T05:48:07.352Z,28.12
2023-04-20T05:49:07.125Z,16.88
2023-04-20T05:50:07.112Z,16.88
2023-04-20T05:51:07.103Z,22.50
2023-04-20T05:52:07.099Z,33.75
2023-04-20T05:53:07.099Z,33.75
2023-04-20T05:54:07.082Z,33.75
2023-04-20T05:55:07.060Z,28.12
2023-04-20T05:56:07.058Z,28.12
2023-04-20T05:57:07.037Z,28.12
2023-04-20T05:58:07.052Z,28.12
2023-04-20T05:59:07.019Z,33.75
2023-04-20T06:00:07.001Z,39.38
2023-04-20T06:01:07.005Z,39.38
2023-04-20T06:02:07.073Z,39.38
2023-04-20T06:03:07.275Z,45.00
2023-04-20T06:04:07.229Z,45.00
2023-04-20T06:05:07.100Z,50.62
2023-04-20T06:06:06.968Z,50.62
2023-04-20T06:07:06.955Z,50.62
2023-04-20T06:08:06.955Z,50.62
2023-04-20T06:09:06.921Z,45.00
2023-04-20T06:10:06.906Z,45.00
2023-04-20T06:11:06.898Z,45.00
2023-04-20T06:12:06.898Z,50.62
2023-04-20T06:13:06.891Z,50.62
2023-04-20T06:14:06.854Z,50.62
2023-04-20T06:15:06.857Z,50.62
2023-04-20T06:16:06.887Z,50.62
2023-04-20T06:17:06.860Z,50.62
2023-04-20T06:18:06.901Z,50.62
2023-04-20T06:19:06.841Z,50.62
2023-04-20T06:20:06.818Z,50.62
2023-04-20T06:21:06.800Z,45.00
2023-04-20T06:22:06.799Z,45.00
2023-04-20T06:23:06.805Z,45.00
2023-04-20T06:24:06.754Z,45.00
2023-04-20T06:25:06.746Z,45.00
2023-04-20T06:26:06.748Z,45.00
2023-04-20T06:27:06.727Z,45.00
2023-04-20T06:28:06.734Z,50.62
2023-04-20T06:29:06.709Z,50.62
2023-04-20T06:30:06.733Z,50.62
2023-04-20T06:31:06.771Z,50.62
2023-04-20T06:32:06.695Z,50.62
2023-04-20T06:33:06.725Z,45.00
2023-04-20T06:34:06.661Z,45.00
2023-04-20T06:35:06.649Z,45.00
2023-04-20T06:36:06.636Z,45.00
2023-04-20T06:37:06.637Z,45.00
2023-04-20T06:38:06.718Z,45.00
2023-04-20T06:39:06.629Z,50.62
2023-04-20T06:40:06.592Z,56.25
2023-04-20T06:41:06.582Z,56.25
2023-04-20T06:42:06.575Z,61.88
2023-04-20T06:43:06.588Z,67.50
2023-04-20T06:44:06.604Z,73.12
2023-04-20T06:45:06.558Z,73.12
2023-04-20T06:46:06.524Z,78.75
2023-04-20T06:47:06.578Z,78.75
2023-04-20T06:48:14.174Z,84.38
2023-04-20T06:49:06.508Z,84.38
2023-04-20T06:50:06.494Z,90.00
2023-04-20T06:51:06.526Z,90.00
2023-04-20T06:52:06.491Z,90.00
2023-04-20T06:53:06.472Z,90.00
2023-04-20T06:54:06.448Z,95.62
2023-04-20T06:55:06.456Z,95.62
2023-04-20T06:56:06.429Z,101.25
2023-04-20T06:57:06.425Z,101.25
2023-04-20T06:58:06.413Z,106.88
2023-04-20T06:59:06.416Z,106.88
2023-04-20T07:00:06.406Z,118.12
2023-04-20T07:01:06.403Z,123.75
2023-04-20T07:02:06.529Z,123.75
2023-04-20T07:03:06.465Z,129.38
2023-04-20T07:04:06.423Z,129.38
2023-04-20T07:05:06.351Z,140.62
2023-04-20T07:06:06.337Z,135.00
2023-04-20T07:07:06.328Z,140.62
2023-04-20T07:08:06.305Z,157.50
2023-04-20T07:09:06.310Z,135.00
2023-04-20T07:10:06.286Z,135.00
2023-04-20T07:11:06.302Z,129.38
2023-04-20T07:12:06.277Z,135.00
2023-04-20T07:13:06.257Z,112.50
2023-04-20T07:14:06.236Z,151.88
2023-04-20T07:15:06.234Z,123.75
2023-04-20T07:16:06.415Z,140.62
2023-04-20T07:17:06.216Z,112.50
2023-04-20T07:18:06.236Z,101.25
2023-04-20T07:19:06.187Z,101.25
2023-04-20T07:20:06.192Z,95.62
2023-04-20T07:21:06.202Z,95.62
2023-04-20T07:22:06.206Z,118.12
2023-04-20T07:23:06.182Z,146.25
2023-04-20T07:24:06.352Z,140.62
2023-04-20T07:25:06.188Z,140.62
2023-04-20T07:26:06.113Z,112.50
2023-04-20T07:27:06.165Z,106.88
2023-04-20T07:28:06.160Z,90.00
2023-04-20T07:29:06.113Z,95.62
2023-04-20T07:30:06.105Z,123.75
2023-04-20T07:31:06.079Z,129.38
2023-04-20T07:32:06.159Z,123.75
2023-04-20T07:33:06.092Z,106.88
2023-04-20T07:34:06.120Z,106.88
2023-04-20T07:35:06.101Z,129.38
2023-04-20T07:36:07.437Z,129.38
2023-04-20T07:37:06.204Z,118.12
2023-04-20T07:38:06.203Z,101.25
2023-04-20T07:39:06.123Z,101.25
2023-04-20T07:40:06.046Z,101.25
2023-04-20T07:41:06.021Z,106.88
2023-04-20T07:42:05.997Z,129.38
2023-04-20T07:43:05.962Z,135.00
2023-04-20T07:44:05.955Z,135.00
2023-04-20T07:45:05.958Z,140.62
2023-04-20T07:46:06.024Z,140.62
2023-04-20T07:47:06.163Z,140.62
2023-04-20T07:48:05.992Z,135.00
2023-04-20T07:49:06.014Z,123.75
2023-04-20T07:50:06.013Z,118.12
2023-04-20T07:51:05.900Z,112.50
2023-04-20T07:52:15.750Z,106.88
2023-04-20T07:53:06.004Z,101.25
2023-04-20T07:54:05.880Z,95.62
2023-04-20T07:55:05.827Z,95.62
2023-04-20T07:56:05.839Z,84.38
2023-04-20T07:57:05.860Z,67.50
2023-04-20T07:58:05.835Z,61.88
2023-04-20T07:59:05.822Z,73.12
2023-04-20T08:00:05.795Z,95.62
2023-04-20T08:01:05.803Z,112.50
2023-04-20T08:02:05.884Z,112.50
2023-04-20T08:03:05.890Z,95.62
2023-04-20T08:04:06.077Z,78.75
2023-04-20T08:05:06.107Z,61.88
2023-04-20T08:06:05.946Z,61.88
2023-04-20T08:07:05.746Z,61.88
2023-04-20T08:08:05.722Z,67.50
2023-04-20T08:09:05.715Z,78.75
2023-04-20T08:10:05.772Z,157.50
2023-04-20T08:11:05.728Z,241.88
2023-04-20T08:12:05.788Z,258.75
2023-04-20T08:13:05.648Z,241.88
2023-04-20T08:14:05.729Z,258.75
2023-04-20T08:15:05.846Z,275.62
2023-04-20T08:16:05.688Z,213.75
2023-04-20T08:17:05.663Z,196.88
2023-04-20T08:18:05.828Z,264.38
2023-04-20T08:19:05.659Z,202.50
2023-04-20T08:20:05.612Z,174.38
2023-04-20T08:21:05.709Z,180.00
2023-04-20T08:22:06.080Z,191.25
2023-04-20T08:23:05.560Z,168.75
2023-04-20T08:24:05.572Z,157.50
2023-04-20T08:25:05.533Z,180.00
2023-04-20T08:26:05.634Z,140.62
2023-04-20T08:27:05.622Z,157.50
2023-04-20T08:28:08.652Z,135.00
2023-04-20T08:29:05.568Z,112.50
2023-04-20T08:30:05.520Z,95.62
2023-04-20T08:31:06.464Z,95.62
2023-04-20T08:32:05.492Z,101.25
2023-04-20T08:33:05.470Z,106.88
2023-04-20T08:34:05.484Z,106.88
2023-04-20T08:35:05.441Z,106.88
2023-04-20T08:36:06.089Z,101.25
2023-04-20T08:37:05.489Z,90.00
2023-04-20T08:38:05.421Z,84.38
2023-04-20T08:39:05.657Z,78.75
2023-04-20T08:40:05.375Z,67.50
2023-04-20T08:41:05.335Z,73.12
2023-04-20T08:42:05.340Z,67.50
2023-04-20T08:43:05.322Z,61.88
2023-04-20T08:44:05.383Z,56.25
2023-04-20T08:45:05.360Z,45.00
2023-04-20T08:46:05.619Z,39.38
2023-04-20T08:47:05.529Z,33.75
2023-04-20T08:48:05.441Z,28.12
2023-04-20T08:49:05.299Z,22.50
2023-04-20T08:50:05.308Z,22.50
2023-04-20T08:51:05.265Z,22.50
2023-04-20T08:52:05.282Z,22.50
2023-04-20T08:53:05.260Z,28.12
2023-04-20T08:54:05.282Z,28.12
2023-04-20T08:55:05.273Z,28.12
2023-04-20T08:56:05.214Z,28.12
2023-04-20T08:57:05.243Z,33.75
2023-04-20T08:58:05.185Z,33.75
2023-04-20T08:59:05.150Z,33.75
2023-04-20T09:01:01.192Z,22.50
2023-04-20T09:02:02.269Z,22.50
2023-04-20T09:03:02.492Z,22.50
2023-04-20T09:04:02.327Z,22.50
2023-04-20T09:05:02.351Z,22.50
2023-04-20T09:06:02.120Z,22.50
2023-04-20T09:07:02.123Z,22.50
2023-04-20T09:08:02.110Z,22.50
2023-04-20T09:09:02.106Z,22.50
2023-04-20T09:10:02.089Z,22.50
2023-04-20T09:11:02.078Z,22.50
2023-04-20T09:12:02.078Z,22.50
2023-04-20T09:13:02.055Z,22.50
2023-04-20T09:14:02.088Z,22.50
2023-04-20T09:15:02.021Z,22.50
2023-04-20T09:16:02.096Z,22.50
2023-04-20T09:17:02.074Z,22.50
2023-04-20T09:18:02.049Z,22.50
2023-04-20T09:19:01.985Z,22.50
2023-04-20T09:20:01.976Z,22.50
2023-04-20T09:21:01.955Z,22.50
2023-04-20T09:22:01.953Z,22.50
2023-04-20T09:23:02.008Z,22.50
2023-04-20T09:24:01.921Z,22.50
2023-04-20T09:25:01.913Z,22.50
2023-04-20T09:26:01.897Z,22.50
2023-04-20T09:27:01.901Z,22.50
2023-04-20T09:28:01.883Z,22.50
2023-04-20T09:29:01.879Z,22.50
2023-04-20T09:30:01.882Z,22.50
2023-04-20T09:31:01.845Z,22.50
2023-04-20T09:32:01.871Z,22.50
2023-04-20T09:33:01.861Z,22.50
2023-04-20T09:34:01.822Z,22.50
2023-04-20T09:35:01.832Z,22.50
2023-04-20T09:36:01.793Z,22.50
2023-04-20T09:37:01.807Z,22.50
2023-04-20T09:38:01.778Z,22.50
2023-04-20T09:39:01.768Z,22.50
2023-04-20T09:40:01.752Z,22.50
2023-04-20T09:41:01.741Z,22.50
2023-04-20T09:42:01.740Z,22.50
2023-04-20T09:43:01.753Z,22.50
2023-04-20T09:44:01.748Z,22.50
2023-04-20T09:45:01.707Z,22.50
2023-04-20T09:46:01.814Z,22.50
2023-04-20T09:47:01.699Z,22.50
2023-04-20T09:48:01.723Z,22.50
2023-04-20T09:49:01.663Z,22.50
2023-04-20T09:50:14.042Z,22.50
2023-04-20T09:51:01.674Z,22.50
2023-04-20T09:52:01.650Z,22.50
2023-04-20T09:53:01.686Z,22.50
2023-04-20T09:54:01.626Z,22.50
2023-04-20T09:55:01.611Z,22.50
2023-04-20T09:56:01.588Z,22.50
2023-04-20T09:57:01.613Z,22.50
2023-04-20T09:58:01.577Z,22.50
2023-04-20T09:59:01.557Z,22.50
2023-04-20T10:00:01.573Z,22.50
2023-04-20T10:01:01.545Z,22.50
2023-04-20T10:02:01.635Z,22.50
2023-04-20T10:03:01.659Z,22.50
2023-04-20T10:04:01.751Z,22.50
2023-04-20T10:05:01.489Z,22.50
2023-04-20T10:06:01.494Z,22.50
2023-04-20T10:07:01.496Z,22.50
2023-04-20T10:08:01.458Z,22.50
2023-04-20T10:09:01.472Z,22.50
2023-04-20T10:10:01.434Z,22.50
2023-04-20T10:11:01.460Z,22.50
2023-04-20T10:12:01.439Z,22.50
2023-04-20T10:13:01.434Z,22.50
2023-04-20T10:14:01.396Z,22.50
2023-04-20T10:15:01.468Z,22.50
2023-04-20T10:16:01.388Z,22.50
2023-04-20T10:17:01.582Z,22.50
2023-04-20T10:18:01.483Z,22.50
2023-04-20T10:19:01.400Z,22.50
2023-04-20T10:20:01.333Z,22.50
2023-04-20T10:21:01.345Z,22.50
2023-04-20T10:22:01.349Z,22.50
2023-04-20T10:23:01.363Z,22.50
2023-04-20T10:24:01.329Z,22.50
2023-04-20T10:25:01.399Z,22.50
2023-04-20T10:26:01.343Z,22.50
2023-04-20T10:27:01.292Z,22.50
2023-04-20T10:28:01.273Z,22.50
2023-04-20T10:29:01.263Z,22.50
2023-04-20T10:30:01.254Z,22.50
2023-04-20T10:31:02.103Z,22.50
2023-04-20T10:32:01.260Z,22.50
2023-04-20T10:33:01.223Z,22.50
2023-04-20T10:34:01.192Z,22.50
2023-04-20T10:35:01.173Z,22.50
2023-04-20T10:36:01.155Z,22.50
2023-04-20T10:37:01.182Z,22.50
2023-04-20T10:38:01.165Z,22.50
2023-04-20T10:39:01.136Z,22.50
2023-04-20T10:40:01.221Z,22.50
2023-04-20T10:41:01.134Z,22.50
2023-04-20T10:42:01.144Z,22.50
2023-04-20T10:43:01.101Z,22.50
2023-04-20T10:44:01.076Z,22.50
2023-04-20T10:45:01.090Z,22.50
2023-04-20T10:46:01.105Z,22.50
2023-04-20T10:47:01.092Z,22.50
2023-04-20T10:48:01.080Z,22.50
2023-04-20T10:49:01.147Z,22.50
2023-04-20T10:50:01.023Z,22.50
2023-04-20T10:51:01.151Z,22.50
2023-04-20T10:52:01.036Z,22.50
2023-04-20T10:53:01.071Z,22.50
2023-04-20T10:54:00.985Z,22.50
2023-04-20T10:55:00.984Z,22.50
2023-04-20T10:56:01.004Z,22.50
2023-04-20T10:57:00.984Z,22.50
2023-04-20T10:58:00.933Z,22.50
2023-04-20T10:59:02.345Z,22.50
2023-04-20T11:00:00.901Z,22.50
2023-04-20T11:01:00.903Z,22.50
2023-04-20T11:02:01.023Z,22.50
2023-04-20T11:03:00.947Z,22.50
2023-04-20T11:04:00.877Z,22.50
2023-04-20T11:05:01.076Z,22.50
2023-04-20T11:06:00.836Z,22.50
2023-04-20T11:07:00.847Z,22.50
2023-04-20T11:08:00.827Z,22.50
2023-04-20T11:09:00.816Z,22.50
2023-04-20T11:10:00.808Z,22.50
2023-04-20T11:11:00.798Z,22.50
2023-04-20T11:12:00.804Z,22.50
2023-04-20T11:13:00.777Z,22.50
2023-04-20T11:14:00.763Z,22.50
2023-04-20T11:15:00.749Z,22.50
2023-04-20T11:16:00.750Z,22.50
2023-04-20T11:17:00.790Z,22.50
2023-04-20T11:18:00.758Z,22.50
2023-04-20T11:19:00.727Z,22.50
2023-04-20T11:20:00.690Z,22.50
2023-04-20T11:21:00.709Z,22.50
2023-04-20T11:22:00.670Z,22.50
2023-04-20T11:23:00.687Z,22.50
2023-04-20T11:24:00.677Z,22.50
2023-04-20T11:25:00.661Z,22.50
2023-04-20T11:26:00.638Z,22.50
2023-04-20T11:27:00.617Z,22.50
2023-04-20T11:28:00.630Z,22.50
2023-04-20T11:29:00.602Z,22.50
2023-04-20T11:30:00.599Z,22.50
2023-04-20T11:31:00.582Z,22.50
2023-04-20T11:32:00.755Z,22.50
2023-04-20T11:33:00.685Z,22.50
2023-04-20T11:34:00.538Z,22.50
2023-04-20T11:35:06.594Z,22.50
2023-04-20T11:36:00.528Z,22.50
2023-04-20T11:37:00.514Z,22.50
2023-04-20T11:38:00.523Z,22.50
2023-04-20T11:39:00.485Z,22.50
2023-04-20T11:40:00.493Z,22.50
2023-04-20T11:41:00.480Z,22.50
2023-04-20T11:42:00.486Z,22.50
2023-04-20T11:43:00.444Z,22.50
2023-04-20T11:44:00.440Z,22.50
2023-04-20T11:45:00.432Z,22.50
2023-04-20T11:46:00.425Z,22.50
2023-04-20T11:47:00.450Z,22.50
2023-04-20T11:48:00.419Z,22.50
2023-04-20T11:49:00.392Z,22.50
2023-04-20T11:50:00.384Z,22.50
2023-04-20T11:51:00.400Z,22.50
2023-04-20T11:52:00.345Z,22.50
2023-04-20T11:53:00.415Z,22.50
2023-04-20T11:54:00.342Z,22.50
2023-04-20T11:55:00.322Z,22.50
2023-04-20T11:56:00.316Z,22.50
2023-04-20T11:57:00.317Z,22.50
2023-04-20T11:58:00.307Z,22.50
2023-04-20T11:59:00.278Z,22.50
2023-04-20T12:00:00.271Z,22.50
2023-04-20T12:01:00.268Z,22.50
2023-04-20T12:02:00.359Z,22.50
2023-04-20T12:03:00.432Z,22.50
2023-04-20T12:04:00.575Z,22.50
2023-04-20T12:05:00.369Z,22.50
2023-04-20T12:06:00.202Z,22.50
2023-04-20T12:07:00.190Z,22.50
2023-04-20T12:08:00.209Z,22.50
2023-04-20T12:09:00.180Z,22.50
2023-04-20T12:10:00.215Z,22.50
2023-04-20T12:11:00.149Z,22.50
2023-04-20T12:12:00.158Z,22.50
2023-04-20T12:13:00.149Z,22.50
2023-04-20T12:14:00.134Z,22.50
2023-04-20T12:15:00.116Z,22.50
2023-04-20T12:16:00.189Z,22.50
2023-04-20T12:17:00.113Z,22.50
2023-04-20T12:18:00.211Z,22.50
2023-04-20T12:19:00.066Z,22.50
2023-04-20T12:20:00.108Z,22.50
2023-04-20T12:21:00.042Z,22.50
2023-04-20T12:22:00.035Z,22.50
2023-04-20T12:23:00.036Z,22.50
2023-04-20T12:24:00.039Z,22.50
2023-04-20T12:25:00.026Z,22.50
2023-04-20T12:26:00.006Z,22.50
2023-04-20T12:26:59.990Z,22.50
2023-04-20T12:28:00.000Z,22.50
2023-04-20T12:28:59.992Z,22.50
2023-04-20T12:29:59.959Z,22.50
2023-04-20T12:30:59.991Z,22.50
2023-04-20T12:32:00.151Z,22.50
2023-04-20T12:32:59.950Z,22.50
2023-04-20T12:33:59.936Z,22.50
2023-04-20T12:34:59.924Z,22.50
2023-04-20T12:35:59.910Z,22.50
2023-04-20T12:36:59.882Z,22.50
2023-04-20T12:37:59.928Z,22.50
2023-04-20T12:38:59.881Z,22.50
2023-04-20T12:39:59.854Z,22.50
2023-04-20T12:40:59.833Z,22.50
2023-04-20T12:41:59.832Z,22.50
2023-04-20T12:42:59.826Z,22.50
2023-04-20T12:43:59.813Z,22.50
2023-04-20T12:44:59.816Z,22.50
2023-04-20T12:45:59.783Z,22.50
2023-04-20T12:46:59.825Z,22.50
2023-04-20T12:48:00.668Z,22.50
2023-04-20T12:48:59.760Z,22.50
2023-04-20T12:49:59.739Z,22.50
2023-04-20T12:50:59.718Z,22.50
2023-04-20T12:51:59.745Z,22.50
2023-04-20T12:52:59.715Z,22.50
2023-04-20T12:53:59.689Z,22.50
2023-04-20T12:54:59.672Z,22.50
2023-04-20T12:56:01.298Z,22.50
2023-04-20T12:56:59.732Z,22.50
2023-04-20T12:57:59.725Z,22.50
2023-04-20T12:58:59.640Z,22.50
2023-04-20T12:59:59.671Z,22.50
2023-04-20T13:00:59.653Z,22.50